Waterloo Airport
CYKF : now visible

Airfield :











YOU CAN JOIN US ON...

 
LOGIN :

Register | Disclaimer

   EN    FR    IT 

 









Legend :    VFR   Marginal VFR   IFR   Intensive IFR   Very Intensive IFR
Visi :
Ceiling :
>= 8 km
>= 3000ft
5 to 8 km
1000 to 3000 ft
1500m to 5 km
500 to 1000 ft
800 to 1500m
200 to 500 ft
< 800m
< 200 ft
Symbols :   Thunderstorms  Fog  Heavy snow  Heavy precipitations  Wind > 20 kt






- Airport Elevation : 1054 ft
- IATA code : YKF


CYKF - Waterloo

CURRENT METAR :
  • 071500Z AUTO 07006KT 030V120 9SM CLR 23/14 A3018 RMK SLP220 DENSITY ALT 1800FT

EXPIRED METARs :
  • 071400Z AUTO 03003KT 350V070 9SM CLR 21/14 A3018 RMK SLP220 DENSITY ALT 1600FT
  • 071300Z AUTO VRB02KT 9SM CLR 18/14 A3019 RMK SLP222 DENSITY ALT 1300FT

TAF TAF CYKF
Valid from the 07 at 14:00 until the 08 at 02:00 UTC


071339Z 0714/0802 09006KT P6SM SKC
BECMG 0714/0716 SCT060
FM080000 VRB03KT P6SM FEW060 RMK FCST BASED ON AUTO OBS. NXT FCST BY 072000Z
CZYZ FIR / North America



MET'MAP, your aeronautical weather chart ! - Copyright ORBIFLY December 2007 - Disclaimer

ORBIFLY MET'MAP TEAM :

Programming & Development : Alexandra Zaïnal
Concept & original design : Baudouin d'Aumeries
Assistance for programming : Marc-Olivier Méhu
Technical & hardware support : Manuel Goepfert

Contact : metmap@orbifly.com




SOURCES & CREDITS :

   NOAA       Earth
Advisory